sensor_id;sensor_type;location;lat;lon;timestamp;pressure;altitude;pressure_sealevel;temperature;humidity
78855;BME280;68206;59.956;30.234;2024-02-04T00:01:44;98288.41;;;6.86;48.55
78855;BME280;68206;59.956;30.234;2024-02-04T00:04:13;98293.75;;;6.85;48.08
78855;BME280;68206;59.956;30.234;2024-02-04T00:06:43;98290.25;;;6.84;47.72
78855;BME280;68206;59.956;30.234;2024-02-04T00:09:11;98287.63;;;6.84;48.72
78855;BME280;68206;59.956;30.234;2024-02-04T00:11:39;98283.28;;;6.83;47.76
78855;BME280;68206;59.956;30.234;2024-02-04T00:14:08;98278.06;;;6.82;48.23
78855;BME280;68206;59.956;30.234;2024-02-04T00:16:36;98281.66;;;6.81;47.59
78855;BME280;68206;59.956;30.234;2024-02-04T00:19:05;98284.28;;;6.81;47.81
78855;BME280;68206;59.956;30.234;2024-02-04T00:21:37;98283.53;;;6.79;47.55
78855;BME280;68206;59.956;30.234;2024-02-04T00:24:05;98287.09;;;6.78;48.28
78855;BME280;68206;59.956;30.234;2024-02-04T00:26:34;98282.81;;;6.75;48.57
78855;BME280;68206;59.956;30.234;2024-02-04T00:29:03;98274.06;;;6.75;47.54
78855;BME280;68206;59.956;30.234;2024-02-04T00:31:31;98277.66;;;6.74;48.03
78855;BME280;68206;59.956;30.234;2024-02-04T00:33:59;98280.38;;;6.72;48.24
78855;BME280;68206;59.956;30.234;2024-02-04T00:36:28;98273.38;;;6.71;47.67
78855;BME280;68206;59.956;30.234;2024-02-04T00:38:57;98265.50;;;6.71;48.05
78855;BME280;68206;59.956;30.234;2024-02-04T00:41:25;98269.97;;;6.69;47.74
78855;BME280;68206;59.956;30.234;2024-02-04T00:43:53;98276.19;;;6.68;48.16
78855;BME280;68206;59.956;30.234;2024-02-04T00:46:22;98260.47;;;6.67;47.64
78855;BME280;68206;59.956;30.234;2024-02-04T00:48:50;98258.78;;;6.66;47.95
78855;BME280;68206;59.956;30.234;2024-02-04T00:51:19;98265.81;;;6.65;48.37
78855;BME280;68206;59.956;30.234;2024-02-04T00:53:47;98272.94;;;6.63;48.32
78855;BME280;68206;59.956;30.234;2024-02-04T00:56:17;98265.03;;;6.63;48.40
78855;BME280;68206;59.956;30.234;2024-02-04T00:58:45;98261.66;;;6.61;47.21
78855;BME280;68206;59.956;30.234;2024-02-04T01:01:14;98259.94;;;6.60;47.58
78855;BME280;68206;59.956;30.234;2024-02-04T01:03:42;98260.88;;;6.59;48.49
78855;BME280;68206;59.956;30.234;2024-02-04T01:06:11;98267.91;;;6.59;48.31
78855;BME280;68206;59.956;30.234;2024-02-04T01:08:39;98263.56;;;6.58;47.57
78855;BME280;68206;59.956;30.234;2024-02-04T01:11:07;98263.66;;;6.56;48.34
78855;BME280;68206;59.956;30.234;2024-02-04T01:13:37;98261.00;;;6.56;48.33
78855;BME280;68206;59.956;30.234;2024-02-04T01:16:06;98267.25;;;6.55;47.42
78855;BME280;68206;59.956;30.234;2024-02-04T01:18:34;98262.91;;;6.54;48.02
78855;BME280;68206;59.956;30.234;2024-02-04T01:21:02;98260.28;;;6.54;47.96
78855;BME280;68206;59.956;30.234;2024-02-04T01:23:31;98267.47;;;6.51;48.07
78855;BME280;68206;59.956;30.234;2024-02-04T01:25:59;98267.47;;;6.51;47.45
78855;BME280;68206;59.956;30.234;2024-02-04T01:28:27;98264.81;;;6.51;48.26
78855;BME280;68206;59.956;30.234;2024-02-04T01:30:57;98271.88;;;6.50;47.72
78855;BME280;68206;59.956;30.234;2024-02-04T01:33:25;98285.22;;;6.47;47.98
78855;BME280;68206;59.956;30.234;2024-02-04T01:35:54;98283.44;;;6.47;47.46
78855;BME280;68206;59.956;30.234;2024-02-04T01:38:22;98288.69;;;6.47;47.64
78855;BME280;68206;59.956;30.234;2024-02-04T01:40:50;98291.34;;;6.47;47.74
78855;BME280;68206;59.956;30.234;2024-02-04T01:43:20;98287.91;;;6.45;47.69
78855;BME280;68206;59.956;30.234;2024-02-04T01:45:51;98288.94;;;6.43;47.66
78855;BME280;68206;59.956;30.234;2024-02-04T01:48:21;98278.41;;;6.43;47.61
78855;BME280;68206;59.956;30.234;2024-02-04T01:50:51;98278.50;;;6.41;47.37
78855;BME280;68206;59.956;30.234;2024-02-04T01:53:22;98272.44;;;6.39;47.74
78855;BME280;68206;59.956;30.234;2024-02-04T01:55:52;98265.47;;;6.38;47.60
78855;BME280;68206;59.956;30.234;2024-02-04T01:58:22;98263.75;;;6.37;46.62
78855;BME280;68206;59.956;30.234;2024-02-04T02:00:51;98262.16;;;6.35;46.73
78855;BME280;68206;59.956;30.234;2024-02-04T02:03:21;98248.13;;;6.34;46.98
78855;BME280;68206;59.956;30.234;2024-02-04T02:05:51;98246.44;;;6.33;47.35
78855;BME280;68206;59.956;30.234;2024-02-04T02:08:20;98250.84;;;6.33;47.52
78855;BME280;68206;59.956;30.234;2024-02-04T02:10:51;98258.75;;;6.33;47.10
78855;BME280;68206;59.956;30.234;2024-02-04T02:13:27;98264.00;;;6.33;47.22
78855;BME280;68206;59.956;30.234;2024-02-04T02:16:02;98254.50;;;6.30;46.94
78855;BME280;68206;59.956;30.234;2024-02-04T02:18:37;98251.88;;;6.30;46.89
78855;BME280;68206;59.956;30.234;2024-02-04T02:21:24;98248.44;;;6.28;47.53
78855;BME280;68206;59.956;30.234;2024-02-04T02:24:11;98248.44;;;6.28;46.86
78855;BME280;68206;59.956;30.234;2024-02-04T02:26:42;98239.72;;;6.28;46.76
78855;BME280;68206;59.956;30.234;2024-02-04T02:29:12;98249.38;;;6.27;47.58
78855;BME280;68206;59.956;30.234;2024-02-04T02:31:40;98252.88;;;6.28;47.57
78855;BME280;68206;59.956;30.234;2024-02-04T02:34:15;98248.69;;;6.24;47.05
78855;BME280;68206;59.956;30.234;2024-02-04T02:36:54;98235.38;;;6.27;47.05
78855;BME280;68206;59.956;30.234;2024-02-04T02:39:34;98245.91;;;6.27;47.23
78855;BME280;68206;59.956;30.234;2024-02-04T02:42:07;98233.66;;;6.26;47.06
78855;BME280;68206;59.956;30.234;2024-02-04T02:44:38;98245.91;;;6.27;47.81
78855;BME280;68206;59.956;30.234;2024-02-04T02:47:07;98230.09;;;6.27;47.22
78855;BME280;68206;59.956;30.234;2024-02-04T02:49:36;98233.66;;;6.26;47.37
78855;BME280;68206;59.956;30.234;2024-02-04T02:52:04;98235.38;;;6.27;47.25
78855;BME280;68206;59.956;30.234;2024-02-04T02:54:33;98238.00;;;6.27;47.85
78855;BME280;68206;59.956;30.234;2024-02-04T02:57:01;98231.81;;;6.28;47.22
78855;BME280;68206;59.956;30.234;2024-02-04T02:59:31;98226.53;;;6.28;47.92
78855;BME280;68206;59.956;30.234;2024-02-04T03:01:59;98223.91;;;6.28;47.24
78855;BME280;68206;59.956;30.234;2024-02-04T03:04:27;98219.50;;;6.28;47.35
78855;BME280;68206;59.956;30.234;2024-02-04T03:06:56;98225.63;;;6.29;47.48
78855;BME280;68206;59.956;30.234;2024-02-04T03:09:25;98222.13;;;6.28;47.58
78855;BME280;68206;59.956;30.234;2024-02-04T03:11:53;98219.50;;;6.28;47.80
78855;BME280;68206;59.956;30.234;2024-02-04T03:14:22;98235.22;;;6.30;47.95
78855;BME280;68206;59.956;30.234;2024-02-04T03:16:51;98228.19;;;6.30;47.11
78855;BME280;68206;59.956;30.234;2024-02-04T03:19:21;98231.66;;;6.31;48.03
78855;BME280;68206;59.956;30.234;2024-02-04T03:21:50;98225.56;;;6.30;48.08
78855;BME280;68206;59.956;30.234;2024-02-04T03:24:18;98229.03;;;6.31;47.33
78855;BME280;68206;59.956;30.234;2024-02-04T03:26:47;98223.78;;;6.31;47.71
78855;BME280;68206;59.956;30.234;2024-02-04T03:29:16;98230.72;;;6.32;47.34
78855;BME280;68206;59.956;30.234;2024-02-04T03:31:45;98229.03;;;6.31;47.91
78855;BME280;68206;59.956;30.234;2024-02-04T03:34:15;98235.06;;;6.33;47.54
78855;BME280;68206;59.956;30.234;2024-02-04T03:36:44;98228.94;;;6.32;48.18
78855;BME280;68206;59.956;30.234;2024-02-04T03:39:12;98223.59;;;6.34;47.07
78855;BME280;68206;59.956;30.234;2024-02-04T03:41:41;98225.38;;;6.33;47.16
78855;BME280;68206;59.956;30.234;2024-02-04T03:44:09;98216.56;;;6.34;48.13
78855;BME280;68206;59.956;30.234;2024-02-04T03:46:38;98206.88;;;6.35;47.18
78855;BME280;68206;59.956;30.234;2024-02-04T03:49:08;98204.25;;;6.35;48.13
78855;BME280;68206;59.956;30.234;2024-02-04T03:51:38;98201.59;;;6.35;47.74
78855;BME280;68206;59.956;30.234;2024-02-04T03:54:07;98198.97;;;6.35;47.13
78855;BME280;68206;59.956;30.234;2024-02-04T03:56:36;98198.06;;;6.36;47.61
78855;BME280;68206;59.956;30.234;2024-02-04T03:59:04;98194.56;;;6.35;47.68
78855;BME280;68206;59.956;30.234;2024-02-04T04:01:33;98192.78;;;6.36;47.38
78855;BME280;68206;59.956;30.234;2024-02-04T04:04:02;98198.91;;;6.36;48.17
78855;BME280;68206;59.956;30.234;2024-02-04T04:06:30;98183.97;;;6.37;48.10
78855;BME280;68206;59.956;30.234;2024-02-04T04:09:00;98182.25;;;6.36;47.47
78855;BME280;68206;59.956;30.234;2024-02-04T04:11:28;98179.63;;;6.36;48.14
78855;BME280;68206;59.956;30.234;2024-02-04T04:13:57;98171.72;;;6.36;47.67
78855;BME280;68206;59.956;30.234;2024-02-04T04:16:25;98168.16;;;6.37;47.18
78855;BME280;68206;59.956;30.234;2024-02-04T04:18:54;98168.16;;;6.37;48.27
78855;BME280;68206;59.956;30.234;2024-02-04T04:21:23;98162.91;;;6.37;47.45
78855;BME280;68206;59.956;30.234;2024-02-04T04:23:51;98165.59;;;6.35;48.15
78855;BME280;68206;59.956;30.234;2024-02-04T04:26:21;98157.72;;;6.35;47.62
78855;BME280;68206;59.956;30.234;2024-02-04T04:28:49;98166.47;;;6.36;48.24
78855;BME280;68206;59.956;30.234;2024-02-04T04:31:18;98161.19;;;6.36;47.58
78855;BME280;68206;59.956;30.234;2024-02-04T04:33:46;98159.41;;;6.36;48.54
78855;BME280;68206;59.956;30.234;2024-02-04T04:36:14;98151.59;;;6.35;48.17
78855;BME280;68206;59.956;30.234;2024-02-04T04:38:42;98147.19;;;6.35;48.16
78855;BME280;68206;59.956;30.234;2024-02-04T04:41:11;98137.50;;;6.36;47.60
78855;BME280;68206;59.956;30.234;2024-02-04T04:43:40;98134.88;;;6.36;48.02
78855;BME280;68206;59.956;30.234;2024-02-04T04:46:09;98130.47;;;6.36;47.83
78855;BME280;68206;59.956;30.234;2024-02-04T04:48:37;98136.59;;;6.37;47.71
78855;BME280;68206;59.956;30.234;2024-02-04T04:51:07;98140.03;;;6.37;48.31
78855;BME280;68206;59.956;30.234;2024-02-04T04:53:36;98136.59;;;6.37;47.43
78855;BME280;68206;59.956;30.234;2024-02-04T04:56:06;98136.59;;;6.37;47.37
78855;BME280;68206;59.956;30.234;2024-02-04T04:58:35;98141.84;;;6.37;48.08
78855;BME280;68206;59.956;30.234;2024-02-04T05:01:05;98147.94;;;6.37;47.59
78855;BME280;68206;59.956;30.234;2024-02-04T05:03:34;98147.09;;;6.37;47.78
78855;BME280;68206;59.956;30.234;2024-02-04T05:06:02;98148.78;;;6.38;48.49
78855;BME280;68206;59.956;30.234;2024-02-04T05:08:31;98152.38;;;6.37;48.65
78855;BME280;68206;59.956;30.234;2024-02-04T05:10:59;98147.94;;;6.37;48.69
78855;BME280;68206;59.956;30.234;2024-02-04T05:13:27;98157.63;;;6.37;48.52
78855;BME280;68206;59.956;30.234;2024-02-04T05:15:56;98151.66;;;6.33;47.48
78855;BME280;68206;59.956;30.234;2024-02-04T05:18:25;98153.31;;;6.36;48.62
78855;BME280;68206;59.956;30.234;2024-02-04T05:20:54;98143.69;;;6.35;47.64
78855;BME280;68206;59.956;30.234;2024-02-04T05:23:23;98152.38;;;6.37;48.42
78855;BME280;68206;59.956;30.234;2024-02-04T05:25:51;98148.03;;;6.36;48.26
78855;BME280;68206;59.956;30.234;2024-02-04T05:28:19;98155.00;;;6.37;47.71
78855;BME280;68206;59.956;30.234;2024-02-04T05:30:48;98148.78;;;6.38;47.58
78855;BME280;68206;59.956;30.234;2024-02-04T05:33:18;98129.59;;;6.36;47.75
78855;BME280;68206;59.956;30.234;2024-02-04T05:35:47;98133.94;;;6.37;47.52
78855;BME280;68206;59.956;30.234;2024-02-04T05:38:16;98137.41;;;6.37;47.69
78855;BME280;68206;59.956;30.234;2024-02-04T05:40:44;98152.28;;;6.38;48.52
78855;BME280;68206;59.956;30.234;2024-02-04T05:43:12;98154.03;;;6.38;48.04
78855;BME280;68206;59.956;30.234;2024-02-04T05:45:41;98148.03;;;6.36;47.59
78855;BME280;68206;59.956;30.234;2024-02-04T05:48:10;98135.63;;;6.38;47.54
78855;BME280;68206;59.956;30.234;2024-02-04T05:50:38;98142.66;;;6.37;48.17
78855;BME280;68206;59.956;30.234;2024-02-04T05:53:09;98142.66;;;6.37;48.35
78855;BME280;68206;59.956;30.234;2024-02-04T05:55:39;98143.50;;;6.38;48.29
78855;BME280;68206;59.956;30.234;2024-02-04T05:58:07;98142.59;;;6.39;47.46
78855;BME280;68206;59.956;30.234;2024-02-04T06:00:35;98136.47;;;6.38;47.93
78855;BME280;68206;59.956;30.234;2024-02-04T06:03:04;98137.31;;;6.39;48.36
78855;BME280;68206;59.956;30.234;2024-02-04T06:05:33;98141.66;;;6.40;48.22
78855;BME280;68206;59.956;30.234;2024-02-04T06:08:01;98140.75;;;6.41;48.32
78855;BME280;68206;59.956;30.234;2024-02-04T06:10:30;98132.84;;;6.41;47.42
78855;BME280;68206;59.956;30.234;2024-02-04T06:12:58;98138.97;;;6.41;47.86
78855;BME280;68206;59.956;30.234;2024-02-04T06:15:27;98139.81;;;6.42;47.47
78855;BME280;68206;59.956;30.234;2024-02-04T06:17:56;98136.25;;;6.43;47.38
78855;BME280;68206;59.956;30.234;2024-02-04T06:20:24;98140.56;;;6.44;47.88
78855;BME280;68206;59.956;30.234;2024-02-04T06:22:52;98129.09;;;6.45;48.19
78855;BME280;68206;59.956;30.234;2024-02-04T06:25:20;98130.88;;;6.44;47.12
78855;BME280;68206;59.956;30.234;2024-02-04T06:27:51;98126.38;;;6.46;48.17
78855;BME280;68206;59.956;30.234;2024-02-04T06:30:19;98126.66;;;6.42;47.65
78855;BME280;68206;59.956;30.234;2024-02-04T06:32:48;98128.50;;;6.40;48.07
78855;BME280;68206;59.956;30.234;2024-02-04T06:35:17;98129.59;;;6.36;48.41
78855;BME280;68206;59.956;30.234;2024-02-04T06:37:45;98120.25;;;6.30;48.35
78855;BME280;68206;59.956;30.234;2024-02-04T06:40:13;98123.91;;;6.28;47.48
78855;BME280;68206;59.956;30.234;2024-02-04T06:42:41;98121.53;;;6.23;47.83
78855;BME280;68206;59.956;30.234;2024-02-04T06:45:11;98124.38;;;6.19;48.41
78855;BME280;68206;59.956;30.234;2024-02-04T06:47:43;98116.72;;;6.14;48.17
78855;BME280;68206;59.956;30.234;2024-02-04T06:50:12;98119.53;;;6.11;47.97
78855;BME280;68206;59.956;30.234;2024-02-04T06:52:42;98117.91;;;6.08;49.00
78855;BME280;68206;59.956;30.234;2024-02-04T06:55:11;98108.50;;;6.04;48.34
78855;BME280;68206;59.956;30.234;2024-02-04T06:57:39;98119.88;;;6.05;48.87
78855;BME280;68206;59.956;30.234;2024-02-04T07:00:09;98114.75;;;6.02;49.09
78855;BME280;68206;59.956;30.234;2024-02-04T07:02:39;98116.59;;;6.00;48.56
78855;BME280;68206;59.956;30.234;2024-02-04T07:05:08;98121.97;;;5.98;48.97
78855;BME280;68206;59.956;30.234;2024-02-04T07:07:37;98109.88;;;5.94;48.73
78855;BME280;68206;59.956;30.234;2024-02-04T07:10:06;98115.16;;;5.94;49.32
78855;BME280;68206;59.956;30.234;2024-02-04T07:12:35;98108.22;;;5.93;49.38
78855;BME280;68206;59.956;30.234;2024-02-04T07:15:04;98109.13;;;5.92;48.97
78855;BME280;68206;59.956;30.234;2024-02-04T07:17:32;98111.78;;;5.92;49.20
78855;BME280;68206;59.956;30.234;2024-02-04T07:20:04;98109.22;;;5.91;48.83
78855;BME280;68206;59.956;30.234;2024-02-04T07:22:33;98098.63;;;5.92;49.18
78855;BME280;68206;59.956;30.234;2024-02-04T07:25:04;98090.63;;;5.94;48.78
78855;BME280;68206;59.956;30.234;2024-02-04T07:27:33;98091.41;;;5.96;49.02
78855;BME280;68206;59.956;30.234;2024-02-04T07:30:03;98096.50;;;5.99;49.64
78855;BME280;68206;59.956;30.234;2024-02-04T07:32:32;98106.84;;;6.02;49.62
78855;BME280;68206;59.956;30.234;2024-02-04T07:35:04;98091.66;;;6.07;48.74
78855;BME280;68206;59.956;30.234;2024-02-04T07:37:33;98088.81;;;6.12;49.42
78855;BME280;68206;59.956;30.234;2024-02-04T07:40:01;98087.53;;;6.19;48.96
78855;BME280;68206;59.956;30.234;2024-02-04T07:42:35;98087.97;;;6.27;48.58
78855;BME280;68206;59.956;30.234;2024-02-04T07:45:04;98090.19;;;6.34;48.87
78855;BME280;68206;59.956;30.234;2024-02-04T07:47:36;98092.31;;;6.43;49.07
78855;BME280;68206;59.956;30.234;2024-02-04T07:50:08;98087.69;;;6.48;48.40
78855;BME280;68206;59.956;30.234;2024-02-04T07:52:37;98090.13;;;6.52;49.20
78855;BME280;68206;59.956;30.234;2024-02-04T07:55:10;98093.34;;;6.57;48.31
78855;BME280;68206;59.956;30.234;2024-02-04T07:57:38;98095.41;;;6.67;48.86
78855;BME280;68206;59.956;30.234;2024-02-04T08:00:07;98091.50;;;6.74;48.90
78855;BME280;68206;59.956;30.234;2024-02-04T08:02:40;98088.34;;;6.83;47.92
78855;BME280;68206;59.956;30.234;2024-02-04T08:05:10;98095.81;;;6.91;48.26
78855;BME280;68206;59.956;30.234;2024-02-04T08:07:39;98097.25;;;6.97;48.53
78855;BME280;68206;59.956;30.234;2024-02-04T08:10:08;98095.97;;;7.04;48.15
78855;BME280;68206;59.956;30.234;2024-02-04T08:12:38;98088.28;;;7.15;48.15
78855;BME280;68206;59.956;30.234;2024-02-04T08:15:09;98090.28;;;7.25;47.51
78855;BME280;68206;59.956;30.234;2024-02-04T08:17:36;98094.97;;;7.36;47.93
78855;BME280;68206;59.956;30.234;2024-02-04T08:20:05;98083.78;;;7.47;47.73
78855;BME280;68206;59.956;30.234;2024-02-04T08:22:36;98089.94;;;7.61;47.26
78855;BME280;68206;59.956;30.234;2024-02-04T08:25:05;98082.97;;;7.75;46.70
78855;BME280;68206;59.956;30.234;2024-02-04T08:27:34;98086.56;;;7.88;46.91
78855;BME280;68206;59.956;30.234;2024-02-04T08:30:03;98093.66;;;8.01;46.59
78855;BME280;68206;59.956;30.234;2024-02-04T08:32:31;98082.25;;;8.15;46.19
78855;BME280;68206;59.956;30.234;2024-02-04T08:35:00;98082.34;;;8.28;45.55
78855;BME280;68206;59.956;30.234;2024-02-04T08:37:29;98075.38;;;8.41;45.41
78855;BME280;68206;59.956;30.234;2024-02-04T08:39:59;98075.38;;;8.55;45.37
78855;BME280;68206;59.956;30.234;2024-02-04T08:42:28;98077.22;;;8.67;45.06
78855;BME280;68206;59.956;30.234;2024-02-04T08:44:57;98078.22;;;8.79;44.64
78855;BME280;68206;59.956;30.234;2024-02-04T08:47:25;98070.44;;;8.90;44.56
78855;BME280;68206;59.956;30.234;2024-02-04T08:49:53;98076.81;;;9.00;44.11
78855;BME280;68206;59.956;30.234;2024-02-04T08:52:22;98069.16;;;9.10;43.91
78855;BME280;68206;59.956;30.234;2024-02-04T08:54:52;98080.81;;;9.20;43.61
78855;BME280;68206;59.956;30.234;2024-02-04T08:57:21;98066.16;;;9.28;43.77
78855;BME280;68206;59.956;30.234;2024-02-04T08:59:49;98068.38;;;9.35;43.48
78855;BME280;68206;59.956;30.234;2024-02-04T09:02:18;98075.69;;;9.44;43.31
78855;BME280;68206;59.956;30.234;2024-02-04T09:04:46;98076.97;;;9.51;42.74
78855;BME280;68206;59.956;30.234;2024-02-04T09:07:15;98077.41;;;9.57;42.46
78855;BME280;68206;59.956;30.234;2024-02-04T09:09:43;98064.59;;;9.64;42.84
78855;BME280;68206;59.956;30.234;2024-02-04T09:12:12;98072.13;;;9.70;42.69
78855;BME280;68206;59.956;30.234;2024-02-04T09:14:43;98065.56;;;9.76;41.93
78855;BME280;68206;59.956;30.234;2024-02-04T09:17:12;98066.31;;;9.78;42.10
78855;BME280;68206;59.956;30.234;2024-02-04T09:19:40;98069.81;;;9.78;41.90
78855;BME280;68206;59.956;30.234;2024-02-04T09:22:10;98077.75;;;9.78;41.63
78855;BME280;68206;59.956;30.234;2024-02-04T09:24:38;98079.56;;;9.78;41.95
78855;BME280;68206;59.956;30.234;2024-02-04T09:27:07;98075.00;;;9.80;41.93
78855;BME280;68206;59.956;30.234;2024-02-04T09:29:35;98078.50;;;9.80;41.15
78855;BME280;68206;59.956;30.234;2024-02-04T09:32:05;98086.31;;;9.82;41.59
78855;BME280;68206;59.956;30.234;2024-02-04T09:34:36;98085.28;;;9.84;41.64
78855;BME280;68206;59.956;30.234;2024-02-04T09:37:04;98081.69;;;9.85;41.60
78855;BME280;68206;59.956;30.234;2024-02-04T09:39:33;98082.31;;;9.89;40.96
78855;BME280;68206;59.956;30.234;2024-02-04T09:42:02;98078.63;;;9.91;41.27
78855;BME280;68206;59.956;30.234;2024-02-04T09:44:32;98079.34;;;9.93;40.90
78855;BME280;68206;59.956;30.234;2024-02-04T09:47:05;98075.66;;;9.96;41.41
78855;BME280;68206;59.956;30.234;2024-02-04T09:49:35;98086.13;;;9.97;40.86
78855;BME280;68206;59.956;30.234;2024-02-04T09:52:07;98072.03;;;9.97;40.44
78855;BME280;68206;59.956;30.234;2024-02-04T09:54:41;98075.53;;;9.97;40.48
78855;BME280;68206;59.956;30.234;2024-02-04T09:57:13;98068.44;;;9.98;40.16
78855;BME280;68206;59.956;30.234;2024-02-04T09:59:44;98066.66;;;9.98;40.22
78855;BME280;68206;59.956;30.234;2024-02-04T10:02:16;98070.25;;;9.97;40.73
78855;BME280;68206;59.956;30.234;2024-02-04T10:04:48;98072.78;;;9.99;40.43
78855;BME280;68206;59.956;30.234;2024-02-04T10:07:17;98068.44;;;9.98;40.35
78855;BME280;68206;59.956;30.234;2024-02-04T10:09:47;98072.78;;;9.99;39.89
78855;BME280;68206;59.956;30.234;2024-02-04T10:12:15;98078.09;;;9.99;40.59
78855;BME280;68206;59.956;30.234;2024-02-04T10:14:44;98069.31;;;9.98;40.44
78855;BME280;68206;59.956;30.234;2024-02-04T10:17:13;98076.25;;;9.99;40.77
78855;BME280;68206;59.956;30.234;2024-02-04T10:19:46;98090.59;;;9.97;40.43
78855;BME280;68206;59.956;30.234;2024-02-04T10:22:15;98080.94;;;9.96;40.68
78855;BME280;68206;59.956;30.234;2024-02-04T10:24:44;98081.03;;;9.94;40.90
78855;BME280;68206;59.956;30.234;2024-02-04T10:27:15;98081.25;;;9.91;40.55
78855;BME280;68206;59.956;30.234;2024-02-04T10:29:55;98083.25;;;9.88;40.60
78855;BME280;68206;59.956;30.234;2024-02-04T10:32:24;98084.44;;;9.84;40.10
78855;BME280;68206;59.956;30.234;2024-02-04T10:34:54;98087.19;;;9.82;40.15
78855;BME280;68206;59.956;30.234;2024-02-04T10:37:22;98084.75;;;9.79;40.67
78855;BME280;68206;59.956;30.234;2024-02-04T10:39:56;98084.22;;;9.74;40.56
78855;BME280;68206;59.956;30.234;2024-02-04T10:42:26;98089.72;;;9.71;40.40
78855;BME280;68206;59.956;30.234;2024-02-04T10:44:55;98086.63;;;9.64;41.31
78855;BME280;68206;59.956;30.234;2024-02-04T10:47:30;98088.75;;;9.59;40.32
78855;BME280;68206;59.956;30.234;2024-02-04T10:50:03;98089.91;;;9.55;40.63
78855;BME280;68206;59.956;30.234;2024-02-04T10:52:35;98087.56;;;9.51;40.96
78855;BME280;68206;59.956;30.234;2024-02-04T10:55:07;98094.00;;;9.47;40.77
78855;BME280;68206;59.956;30.234;2024-02-04T10:57:37;98090.72;;;9.43;40.83
78855;BME280;68206;59.956;30.234;2024-02-04T11:00:09;98087.34;;;9.41;40.94
78855;BME280;68206;59.956;30.234;2024-02-04T11:02:40;98096.41;;;9.37;40.94
78855;BME280;68206;59.956;30.234;2024-02-04T11:05:15;98078.97;;;9.35;40.86
78855;BME280;68206;59.956;30.234;2024-02-04T11:07:45;98092.38;;;9.31;41.20
78855;BME280;68206;59.956;30.234;2024-02-04T11:10:14;98087.41;;;9.27;40.99
78855;BME280;68206;59.956;30.234;2024-02-04T11:12:44;98082.31;;;9.24;41.08
78855;BME280;68206;59.956;30.234;2024-02-04T11:15:15;98081.56;;;9.22;41.05
78855;BME280;68206;59.956;30.234;2024-02-04T11:18:02;98091.47;;;9.18;41.11
78855;BME280;68206;59.956;30.234;2024-02-04T11:23:56;98086.72;;;9.11;40.93
78855;BME280;68206;59.956;30.234;2024-02-04T11:26:30;98083.41;;;9.07;40.98
78855;BME280;68206;59.956;30.234;2024-02-04T11:28:58;98097.78;;;9.03;41.04
78855;BME280;68206;59.956;30.234;2024-02-04T11:31:28;98087.53;;;8.99;41.42
78855;BME280;68206;59.956;30.234;2024-02-04T11:33:57;98088.66;;;8.95;41.44
78855;BME280;68206;59.956;30.234;2024-02-04T11:36:26;98084.44;;;8.92;41.25
78855;BME280;68206;59.956;30.234;2024-02-04T11:38:56;98090.75;;;8.89;41.24
78855;BME280;68206;59.956;30.234;2024-02-04T11:41:25;98093.47;;;8.88;41.47
78855;BME280;68206;59.956;30.234;2024-02-04T11:43:56;98083.13;;;8.85;41.43
78855;BME280;68206;59.956;30.234;2024-02-04T11:46:30;98082.38;;;8.83;41.50
78855;BME280;68206;59.956;30.234;2024-02-04T11:49:00;98074.53;;;8.81;41.68
78855;BME280;68206;59.956;30.234;2024-02-04T11:51:31;98073.69;;;8.81;41.43
78855;BME280;68206;59.956;30.234;2024-02-04T11:54:02;98076.53;;;8.78;41.95
78855;BME280;68206;59.956;30.234;2024-02-04T11:56:43;98081.28;;;8.73;41.68
78855;BME280;68206;59.956;30.234;2024-02-04T11:59:12;98081.66;;;8.67;41.76
78855;BME280;68206;59.956;30.234;2024-02-04T12:01:41;98080.81;;;8.66;41.62
78855;BME280;68206;59.956;30.234;2024-02-04T12:04:13;98078.47;;;8.62;41.77
78855;BME280;68206;59.956;30.234;2024-02-04T12:06:44;98084.78;;;8.59;41.59
78855;BME280;68206;59.956;30.234;2024-02-04T12:09:16;98081.50;;;8.56;41.67
78855;BME280;68206;59.956;30.234;2024-02-04T12:11:47;98083.47;;;8.52;41.70
78855;BME280;68206;59.956;30.234;2024-02-04T12:14:18;98096.88;;;8.49;41.63
78855;BME280;68206;59.956;30.234;2024-02-04T12:16:46;98092.72;;;8.45;41.92
78855;BME280;68206;59.956;30.234;2024-02-04T12:19:14;98085.84;;;8.42;41.48
78855;BME280;68206;59.956;30.234;2024-02-04T12:21:44;98099.25;;;8.39;41.88
78855;BME280;68206;59.956;30.234;2024-02-04T12:24:14;98102.81;;;8.38;41.58
78855;BME280;68206;59.956;30.234;2024-02-04T12:26:43;98104.72;;;8.36;41.79
78855;BME280;68206;59.956;30.234;2024-02-04T12:29:13;98105.75;;;8.34;41.78
78855;BME280;68206;59.956;30.234;2024-02-04T12:31:41;98102.34;;;8.32;41.83
78855;BME280;68206;59.956;30.234;2024-02-04T12:34:10;98109.50;;;8.30;41.72
78855;BME280;68206;59.956;30.234;2024-02-04T12:36:39;98108.84;;;8.26;41.67
78855;BME280;68206;59.956;30.234;2024-02-04T12:39:12;98107.25;;;8.24;42.35
78855;BME280;68206;59.956;30.234;2024-02-04T12:41:42;98111.13;;;8.18;42.20
78855;BME280;68206;59.956;30.234;2024-02-04T12:44:11;98112.06;;;8.17;42.09
78855;BME280;68206;59.956;30.234;2024-02-04T12:46:39;98108.66;;;8.15;42.52
78855;BME280;68206;59.956;30.234;2024-02-04T12:49:08;98114.88;;;8.14;42.25
78855;BME280;68206;59.956;30.234;2024-02-04T12:51:36;98102.72;;;8.12;42.32
78855;BME280;68206;59.956;30.234;2024-02-04T12:54:06;98110.81;;;8.08;42.50
78855;BME280;68206;59.956;30.234;2024-02-04T12:56:55;98111.00;;;8.05;42.54
78855;BME280;68206;59.956;30.234;2024-02-04T12:59:27;98113.66;;;8.05;42.59
78855;BME280;68206;59.956;30.234;2024-02-04T13:01:57;98109.41;;;8.03;42.67
78855;BME280;68206;59.956;30.234;2024-02-04T13:04:33;98103.56;;;7.98;42.57
78855;BME280;68206;59.956;30.234;2024-02-04T13:07:07;98110.53;;;7.99;42.44
78855;BME280;68206;59.956;30.234;2024-02-04T13:09:37;98117.78;;;7.95;42.60
78855;BME280;68206;59.956;30.234;2024-02-04T13:12:09;98113.56;;;7.93;42.26
78855;BME280;68206;59.956;30.234;2024-02-04T13:14:38;98112.88;;;7.89;42.27
78855;BME280;68206;59.956;30.234;2024-02-04T13:17:08;98113.72;;;7.90;42.23